sensor_id;sensor_type;location;lat;lon;timestamp;temperature;humidity
44047;DHT22;29713;-33.888;151.150;2023-09-12T00:01:52;18.80;99.90
44047;DHT22;29713;-33.888;151.150;2023-09-12T00:04:19;18.90;99.90
44047;DHT22;29713;-33.888;151.150;2023-09-12T00:06:46;19.00;99.90
44047;DHT22;29713;-33.888;151.150;2023-09-12T00:09:14;19.20;99.90
44047;DHT22;29713;-33.888;151.150;2023-09-12T00:11:41;19.30;99.90
44047;DHT22;29713;-33.888;151.150;2023-09-12T00:14:15;19.30;99.90
44047;DHT22;29713;-33.888;151.150;2023-09-12T00:16:43;19.40;99.90
44047;DHT22;29713;-33.888;151.150;2023-09-12T00:19:10;19.40;99.90
44047;DHT22;29713;-33.888;151.150;2023-09-12T00:21:37;19.50;99.90
44047;DHT22;29713;-33.888;151.150;2023-09-12T00:24:05;19.60;99.90
44047;DHT22;29713;-33.888;151.150;2023-09-12T00:26:32;19.60;99.90
44047;DHT22;29713;-33.888;151.150;2023-09-12T00:28:59;19.70;99.90
44047;DHT22;29713;-33.888;151.150;2023-09-12T00:31:27;19.90;99.90
44047;DHT22;29713;-33.888;151.150;2023-09-12T00:33:54;20.00;99.90
44047;DHT22;29713;-33.888;151.150;2023-09-12T00:36:21;20.20;99.90
44047;DHT22;29713;-33.888;151.150;2023-09-12T00:38:49;20.00;99.90
44047;DHT22;29713;-33.888;151.150;2023-09-12T00:41:16;20.10;99.90
44047;DHT22;29713;-33.888;151.150;2023-09-12T00:43:43;20.40;99.90
44047;DHT22;29713;-33.888;151.150;2023-09-12T00:46:11;20.70;99.90
44047;DHT22;29713;-33.888;151.150;2023-09-12T00:48:39;21.00;99.90
44047;DHT22;29713;-33.888;151.150;2023-09-12T00:51:07;21.30;99.90
44047;DHT22;29713;-33.888;151.150;2023-09-12T00:53:34;21.40;99.90
44047;DHT22;29713;-33.888;151.150;2023-09-12T00:56:01;21.60;99.90
44047;DHT22;29713;-33.888;151.150;2023-09-12T00:58:28;21.80;99.90
44047;DHT22;29713;-33.888;151.150;2023-09-12T01:00:55;22.10;99.90
44047;DHT22;29713;-33.888;151.150;2023-09-12T01:03:23;21.90;99.90
44047;DHT22;29713;-33.888;151.150;2023-09-12T01:05:50;21.60;99.90
44047;DHT22;29713;-33.888;151.150;2023-09-12T01:08:17;21.60;99.90
44047;DHT22;29713;-33.888;151.150;2023-09-12T01:10:43;21.80;99.90
44047;DHT22;29713;-33.888;151.150;2023-09-12T01:13:13;22.30;99.90
44047;DHT22;29713;-33.888;151.150;2023-09-12T01:15:41;22.70;99.90
44047;DHT22;29713;-33.888;151.150;2023-09-12T01:18:07;23.00;99.90
44047;DHT22;29713;-33.888;151.150;2023-09-12T01:20:34;23.10;99.90
44047;DHT22;29713;-33.888;151.150;2023-09-12T01:28:31;23.60;99.90
44047;DHT22;29713;-33.888;151.150;2023-09-12T01:31:03;23.50;99.90
44047;DHT22;29713;-33.888;151.150;2023-09-12T01:33:30;23.40;99.90
44047;DHT22;29713;-33.888;151.150;2023-09-12T01:35:56;23.50;99.90
44047;DHT22;29713;-33.888;151.150;2023-09-12T01:38:23;23.70;99.90
44047;DHT22;29713;-33.888;151.150;2023-09-12T01:40:50;23.90;99.90
44047;DHT22;29713;-33.888;151.150;2023-09-12T01:43:18;24.10;99.90
44047;DHT22;29713;-33.888;151.150;2023-09-12T01:45:45;24.30;99.90
44047;DHT22;29713;-33.888;151.150;2023-09-12T01:48:12;24.40;99.90
44047;DHT22;29713;-33.888;151.150;2023-09-12T01:50:40;24.30;99.90
44047;DHT22;29713;-33.888;151.150;2023-09-12T01:53:07;24.30;99.90
44047;DHT22;29713;-33.888;151.150;2023-09-12T01:55:33;24.10;99.90
44047;DHT22;29713;-33.888;151.150;2023-09-12T01:58:00;24.10;99.90
44047;DHT22;29713;-33.888;151.150;2023-09-12T02:00:28;24.00;99.90
44047;DHT22;29713;-33.888;151.150;2023-09-12T02:02:54;24.00;99.90
44047;DHT22;29713;-33.888;151.150;2023-09-12T02:05:21;24.00;99.90
44047;DHT22;29713;-33.888;151.150;2023-09-12T02:07:48;24.00;99.90
44047;DHT22;29713;-33.888;151.150;2023-09-12T02:10:15;24.00;99.90
44047;DHT22;29713;-33.888;151.150;2023-09-12T02:12:41;24.10;99.90
44047;DHT22;29713;-33.888;151.150;2023-09-12T02:15:11;24.30;99.90
44047;DHT22;29713;-33.888;151.150;2023-09-12T02:17:41;25.00;99.90
44047;DHT22;29713;-33.888;151.150;2023-09-12T02:20:08;25.60;99.90
44047;DHT22;29713;-33.888;151.150;2023-09-12T02:22:35;25.60;99.90
44047;DHT22;29713;-33.888;151.150;2023-09-12T02:25:02;25.40;99.90
44047;DHT22;29713;-33.888;151.150;2023-09-12T02:27:30;25.50;99.90
44047;DHT22;29713;-33.888;151.150;2023-09-12T02:29:57;25.90;99.90
44047;DHT22;29713;-33.888;151.150;2023-09-12T02:32:23;25.60;99.90
44047;DHT22;29713;-33.888;151.150;2023-09-12T02:34:50;25.80;99.90
44047;DHT22;29713;-33.888;151.150;2023-09-12T02:37:19;26.40;99.90
44047;DHT22;29713;-33.888;151.150;2023-09-12T02:39:45;26.20;99.90
44047;DHT22;29713;-33.888;151.150;2023-09-12T02:42:12;26.50;99.40
44047;DHT22;29713;-33.888;151.150;2023-09-12T02:44:39;25.90;99.00
44047;DHT22;29713;-33.888;151.150;2023-09-12T02:47:05;25.30;99.90
44047;DHT22;29713;-33.888;151.150;2023-09-12T02:49:32;25.00;99.90
44047;DHT22;29713;-33.888;151.150;2023-09-12T02:51:59;24.70;99.90
44047;DHT22;29713;-33.888;151.150;2023-09-12T02:54:25;24.60;99.90
44047;DHT22;29713;-33.888;151.150;2023-09-12T02:56:52;24.20;99.90
44047;DHT22;29713;-33.888;151.150;2023-09-12T02:59:18;23.80;99.90
44047;DHT22;29713;-33.888;151.150;2023-09-12T03:01:45;23.60;99.90
44047;DHT22;29713;-33.888;151.150;2023-09-12T03:04:12;23.50;99.90
44047;DHT22;29713;-33.888;151.150;2023-09-12T03:06:38;23.30;99.90
44047;DHT22;29713;-33.888;151.150;2023-09-12T03:09:05;23.20;99.90
44047;DHT22;29713;-33.888;151.150;2023-09-12T03:11:32;23.10;99.90
44047;DHT22;29713;-33.888;151.150;2023-09-12T03:13:59;23.00;99.90
44047;DHT22;29713;-33.888;151.150;2023-09-12T03:16:25;22.90;99.90
44047;DHT22;29713;-33.888;151.150;2023-09-12T03:18:52;22.70;99.90
44047;DHT22;29713;-33.888;151.150;2023-09-12T03:21:19;22.50;99.90
44047;DHT22;29713;-33.888;151.150;2023-09-12T03:23:46;22.30;99.90
44047;DHT22;29713;-33.888;151.150;2023-09-12T03:26:13;22.20;99.90
44047;DHT22;29713;-33.888;151.150;2023-09-12T03:28:41;22.30;99.90
44047;DHT22;29713;-33.888;151.150;2023-09-12T03:31:10;22.70;99.90
44047;DHT22;29713;-33.888;151.150;2023-09-12T03:33:41;23.40;99.90
44047;DHT22;29713;-33.888;151.150;2023-09-12T03:36:09;24.10;99.90
44047;DHT22;29713;-33.888;151.150;2023-09-12T03:38:37;24.70;99.90
44047;DHT22;29713;-33.888;151.150;2023-09-12T03:41:04;25.00;99.90
44047;DHT22;29713;-33.888;151.150;2023-09-12T03:43:33;25.30;99.90
44047;DHT22;29713;-33.888;151.150;2023-09-12T03:46:00;25.50;99.90
44047;DHT22;29713;-33.888;151.150;2023-09-12T03:48:27;25.70;99.90
44047;DHT22;29713;-33.888;151.150;2023-09-12T03:50:57;25.60;99.90
44047;DHT22;29713;-33.888;151.150;2023-09-12T03:53:24;25.10;99.90
44047;DHT22;29713;-33.888;151.150;2023-09-12T03:55:53;24.80;99.90
44047;DHT22;29713;-33.888;151.150;2023-09-12T03:58:20;24.30;99.90
44047;DHT22;29713;-33.888;151.150;2023-09-12T04:00:47;24.00;99.90
44047;DHT22;29713;-33.888;151.150;2023-09-12T04:03:15;23.70;99.90
44047;DHT22;29713;-33.888;151.150;2023-09-12T04:05:43;23.50;99.90
44047;DHT22;29713;-33.888;151.150;2023-09-12T04:08:10;23.10;99.90
44047;DHT22;29713;-33.888;151.150;2023-09-12T04:10:37;22.90;99.90
44047;DHT22;29713;-33.888;151.150;2023-09-12T04:13:04;22.70;99.90
44047;DHT22;29713;-33.888;151.150;2023-09-12T04:15:32;22.40;99.90
44047;DHT22;29713;-33.888;151.150;2023-09-12T04:18:00;22.20;99.90
44047;DHT22;29713;-33.888;151.150;2023-09-12T04:20:27;22.10;99.90
44047;DHT22;29713;-33.888;151.150;2023-09-12T04:22:54;22.10;99.90
44047;DHT22;29713;-33.888;151.150;2023-09-12T04:25:22;22.00;99.90
44047;DHT22;29713;-33.888;151.150;2023-09-12T04:27:49;21.90;99.90
44047;DHT22;29713;-33.888;151.150;2023-09-12T04:30:17;21.80;99.90
44047;DHT22;29713;-33.888;151.150;2023-09-12T04:32:44;21.80;99.90
44047;DHT22;29713;-33.888;151.150;2023-09-12T04:35:11;21.80;99.90
44047;DHT22;29713;-33.888;151.150;2023-09-12T04:37:39;21.90;99.90
44047;DHT22;29713;-33.888;151.150;2023-09-12T04:40:07;21.80;99.90
44047;DHT22;29713;-33.888;151.150;2023-09-12T04:42:35;21.80;99.90
44047;DHT22;29713;-33.888;151.150;2023-09-12T04:45:02;21.70;99.90
44047;DHT22;29713;-33.888;151.150;2023-09-12T04:47:30;21.60;99.90
44047;DHT22;29713;-33.888;151.150;2023-09-12T04:49:57;21.60;99.90
44047;DHT22;29713;-33.888;151.150;2023-09-12T04:52:24;21.80;99.90
44047;DHT22;29713;-33.888;151.150;2023-09-12T04:54:51;21.90;99.90
44047;DHT22;29713;-33.888;151.150;2023-09-12T04:57:19;22.00;99.90
44047;DHT22;29713;-33.888;151.150;2023-09-12T04:59:46;22.10;99.90
44047;DHT22;29713;-33.888;151.150;2023-09-12T05:02:13;22.00;99.90
44047;DHT22;29713;-33.888;151.150;2023-09-12T05:04:42;21.90;99.90
44047;DHT22;29713;-33.888;151.150;2023-09-12T05:07:08;21.80;99.90
44047;DHT22;29713;-33.888;151.150;2023-09-12T05:09:35;22.10;99.90
44047;DHT22;29713;-33.888;151.150;2023-09-12T05:12:01;22.70;99.90
44047;DHT22;29713;-33.888;151.150;2023-09-12T05:14:28;23.00;99.90
44047;DHT22;29713;-33.888;151.150;2023-09-12T05:16:55;23.00;99.90
44047;DHT22;29713;-33.888;151.150;2023-09-12T05:19:22;22.90;99.90
44047;DHT22;29713;-33.888;151.150;2023-09-12T05:21:50;22.70;99.90
44047;DHT22;29713;-33.888;151.150;2023-09-12T05:24:16;22.40;99.90
44047;DHT22;29713;-33.888;151.150;2023-09-12T05:26:43;22.00;99.90
44047;DHT22;29713;-33.888;151.150;2023-09-12T05:29:09;22.00;99.90
44047;DHT22;29713;-33.888;151.150;2023-09-12T05:31:36;22.10;99.90
44047;DHT22;29713;-33.888;151.150;2023-09-12T05:34:03;22.30;99.90
44047;DHT22;29713;-33.888;151.150;2023-09-12T05:36:30;22.60;99.90
44047;DHT22;29713;-33.888;151.150;2023-09-12T05:38:57;22.40;99.90
44047;DHT22;29713;-33.888;151.150;2023-09-12T05:41:25;22.40;99.90
44047;DHT22;29713;-33.888;151.150;2023-09-12T05:43:52;22.40;99.90
44047;DHT22;29713;-33.888;151.150;2023-09-12T05:46:19;22.70;99.90
44047;DHT22;29713;-33.888;151.150;2023-09-12T05:48:46;23.00;99.90
44047;DHT22;29713;-33.888;151.150;2023-09-12T05:51:14;23.30;99.90
44047;DHT22;29713;-33.888;151.150;2023-09-12T05:53:41;23.40;99.90
44047;DHT22;29713;-33.888;151.150;2023-09-12T05:56:09;23.40;99.90
44047;DHT22;29713;-33.888;151.150;2023-09-12T05:58:36;23.20;99.90
44047;DHT22;29713;-33.888;151.150;2023-09-12T06:01:08;22.90;99.90
44047;DHT22;29713;-33.888;151.150;2023-09-12T06:03:35;22.60;99.90
44047;DHT22;29713;-33.888;151.150;2023-09-12T06:06:03;21.90;99.90
44047;DHT22;29713;-33.888;151.150;2023-09-12T06:08:31;21.50;99.90
44047;DHT22;29713;-33.888;151.150;2023-09-12T06:10:58;21.20;99.90
44047;DHT22;29713;-33.888;151.150;2023-09-12T06:13:28;21.00;99.90
44047;DHT22;29713;-33.888;151.150;2023-09-12T06:15:56;20.90;99.90
44047;DHT22;29713;-33.888;151.150;2023-09-12T06:18:23;20.80;99.90
44047;DHT22;29713;-33.888;151.150;2023-09-12T06:20:51;20.90;99.90
44047;DHT22;29713;-33.888;151.150;2023-09-12T06:23:18;20.70;99.90
44047;DHT22;29713;-33.888;151.150;2023-09-12T06:25:46;20.60;99.90
44047;DHT22;29713;-33.888;151.150;2023-09-12T06:28:25;20.50;99.90
44047;DHT22;29713;-33.888;151.150;2023-09-12T06:30:53;20.60;99.90
44047;DHT22;29713;-33.888;151.150;2023-09-12T06:33:20;20.50;99.90
44047;DHT22;29713;-33.888;151.150;2023-09-12T06:35:50;20.50;99.90
44047;DHT22;29713;-33.888;151.150;2023-09-12T06:38:20;20.30;99.90
44047;DHT22;29713;-33.888;151.150;2023-09-12T06:40:47;20.10;99.90
44047;DHT22;29713;-33.888;151.150;2023-09-12T06:43:15;19.90;99.90
44047;DHT22;29713;-33.888;151.150;2023-09-12T06:45:42;19.80;99.90
44047;DHT22;29713;-33.888;151.150;2023-09-12T06:48:10;19.70;99.90
44047;DHT22;29713;-33.888;151.150;2023-09-12T06:50:37;19.70;99.90
44047;DHT22;29713;-33.888;151.150;2023-09-12T06:53:05;19.60;99.90
44047;DHT22;29713;-33.888;151.150;2023-09-12T06:55:36;19.50;99.90
44047;DHT22;29713;-33.888;151.150;2023-09-12T06:58:04;19.50;99.90
44047;DHT22;29713;-33.888;151.150;2023-09-12T07:00:32;19.30;99.90
44047;DHT22;29713;-33.888;151.150;2023-09-12T07:03:00;19.20;99.90
44047;DHT22;29713;-33.888;151.150;2023-09-12T07:05:27;19.10;99.90
44047;DHT22;29713;-33.888;151.150;2023-09-12T07:07:54;19.00;99.90
44047;DHT22;29713;-33.888;151.150;2023-09-12T07:10:22;18.90;99.90
44047;DHT22;29713;-33.888;151.150;2023-09-12T07:12:49;18.80;99.90
44047;DHT22;29713;-33.888;151.150;2023-09-12T07:15:17;18.70;99.90
44047;DHT22;29713;-33.888;151.150;2023-09-12T07:17:44;18.70;99.90
44047;DHT22;29713;-33.888;151.150;2023-09-12T07:20:12;18.60;99.90
44047;DHT22;29713;-33.888;151.150;2023-09-12T07:22:39;18.60;99.90
44047;DHT22;29713;-33.888;151.150;2023-09-12T07:25:07;18.60;99.90
44047;DHT22;29713;-33.888;151.150;2023-09-12T07:27:35;18.50;99.90
44047;DHT22;29713;-33.888;151.150;2023-09-12T07:30:04;18.50;99.90
44047;DHT22;29713;-33.888;151.150;2023-09-12T07:32:34;18.40;99.90
44047;DHT22;29713;-33.888;151.150;2023-09-12T07:35:02;18.30;99.90
44047;DHT22;29713;-33.888;151.150;2023-09-12T07:37:29;18.30;99.90
44047;DHT22;29713;-33.888;151.150;2023-09-12T07:39:56;18.30;99.90
44047;DHT22;29713;-33.888;151.150;2023-09-12T07:42:24;18.20;99.90
44047;DHT22;29713;-33.888;151.150;2023-09-12T07:44:51;18.20;99.90
44047;DHT22;29713;-33.888;151.150;2023-09-12T07:47:19;18.20;99.90
44047;DHT22;29713;-33.888;151.150;2023-09-12T07:49:53;18.10;99.90
44047;DHT22;29713;-33.888;151.150;2023-09-12T07:52:21;18.10;99.90
44047;DHT22;29713;-33.888;151.150;2023-09-12T07:54:50;18.10;99.90
44047;DHT22;29713;-33.888;151.150;2023-09-12T07:57:20;18.10;99.90
44047;DHT22;29713;-33.888;151.150;2023-09-12T07:59:47;18.00;99.90
44047;DHT22;29713;-33.888;151.150;2023-09-12T08:02:14;18.00;99.90
44047;DHT22;29713;-33.888;151.150;2023-09-12T08:04:41;18.00;99.90
44047;DHT22;29713;-33.888;151.150;2023-09-12T08:07:09;18.00;99.90
44047;DHT22;29713;-33.888;151.150;2023-09-12T08:09:54;17.90;99.90
44047;DHT22;29713;-33.888;151.150;2023-09-12T08:12:24;17.80;99.90
44047;DHT22;29713;-33.888;151.150;2023-09-12T08:14:52;17.80;99.90
44047;DHT22;29713;-33.888;151.150;2023-09-12T08:17:20;17.80;99.90
44047;DHT22;29713;-33.888;151.150;2023-09-12T08:19:47;17.70;99.90
44047;DHT22;29713;-33.888;151.150;2023-09-12T08:22:15;17.70;99.90
44047;DHT22;29713;-33.888;151.150;2023-09-12T08:24:42;17.70;99.90
44047;DHT22;29713;-33.888;151.150;2023-09-12T08:27:10;17.60;99.90
44047;DHT22;29713;-33.888;151.150;2023-09-12T08:29:37;17.60;99.90
44047;DHT22;29713;-33.888;151.150;2023-09-12T08:32:05;17.60;99.90
44047;DHT22;29713;-33.888;151.150;2023-09-12T08:34:32;17.50;99.90
44047;DHT22;29713;-33.888;151.150;2023-09-12T08:36:59;17.40;99.90
44047;DHT22;29713;-33.888;151.150;2023-09-12T08:39:41;17.40;99.90
44047;DHT22;29713;-33.888;151.150;2023-09-12T08:42:14;17.40;99.90
44047;DHT22;29713;-33.888;151.150;2023-09-12T08:44:42;17.30;99.90
44047;DHT22;29713;-33.888;151.150;2023-09-12T08:47:11;17.30;99.90
44047;DHT22;29713;-33.888;151.150;2023-09-12T08:49:39;17.40;99.90
44047;DHT22;29713;-33.888;151.150;2023-09-12T08:52:09;17.30;99.90
44047;DHT22;29713;-33.888;151.150;2023-09-12T08:54:36;17.30;99.90
44047;DHT22;29713;-33.888;151.150;2023-09-12T08:57:05;17.30;99.90
44047;DHT22;29713;-33.888;151.150;2023-09-12T08:59:34;17.30;99.90
44047;DHT22;29713;-33.888;151.150;2023-09-12T09:02:03;17.30;99.90
44047;DHT22;29713;-33.888;151.150;2023-09-12T09:04:33;17.30;99.90
44047;DHT22;29713;-33.888;151.150;2023-09-12T09:07:01;17.30;99.90
44047;DHT22;29713;-33.888;151.150;2023-09-12T09:09:30;17.20;99.90
44047;DHT22;29713;-33.888;151.150;2023-09-12T09:11:59;17.20;99.90
44047;DHT22;29713;-33.888;151.150;2023-09-12T09:14:26;17.20;99.90
44047;DHT22;29713;-33.888;151.150;2023-09-12T09:16:53;17.20;99.90
44047;DHT22;29713;-33.888;151.150;2023-09-12T09:19:21;17.20;99.90
44047;DHT22;29713;-33.888;151.150;2023-09-12T09:21:48;17.20;99.90
44047;DHT22;29713;-33.888;151.150;2023-09-12T09:24:18;17.10;99.90
44047;DHT22;29713;-33.888;151.150;2023-09-12T09:29:16;17.10;99.90
44047;DHT22;29713;-33.888;151.150;2023-09-12T09:31:50;17.10;99.90
44047;DHT22;29713;-33.888;151.150;2023-09-12T09:34:21;17.00;99.90
44047;DHT22;29713;-33.888;151.150;2023-09-12T09:36:55;17.00;99.90
44047;DHT22;29713;-33.888;151.150;2023-09-12T09:39:28;16.90;99.90
44047;DHT22;29713;-33.888;151.150;2023-09-12T09:41:58;16.90;99.90
44047;DHT22;29713;-33.888;151.150;2023-09-12T09:44:27;16.90;99.90
44047;DHT22;29713;-33.888;151.150;2023-09-12T09:47:01;16.80;99.90
44047;DHT22;29713;-33.888;151.150;2023-09-12T09:49:31;16.80;99.90
44047;DHT22;29713;-33.888;151.150;2023-09-12T09:52:04;16.70;99.90
44047;DHT22;29713;-33.888;151.150;2023-09-12T09:54:31;16.70;99.90
44047;DHT22;29713;-33.888;151.150;2023-09-12T09:56:59;16.60;99.90
44047;DHT22;29713;-33.888;151.150;2023-09-12T09:59:27;16.60;99.90
44047;DHT22;29713;-33.888;151.150;2023-09-12T10:01:59;16.60;99.90
44047;DHT22;29713;-33.888;151.150;2023-09-12T10:04:28;16.60;99.90
44047;DHT22;29713;-33.888;151.150;2023-09-12T10:06:58;16.60;99.90
44047;DHT22;29713;-33.888;151.150;2023-09-12T10:09:29;16.50;99.90
44047;DHT22;29713;-33.888;151.150;2023-09-12T10:11:58;16.60;99.90
44047;DHT22;29713;-33.888;151.150;2023-09-12T10:14:27;16.50;99.90
44047;DHT22;29713;-33.888;151.150;2023-09-12T10:17:03;16.50;99.90
44047;DHT22;29713;-33.888;151.150;2023-09-12T10:19:38;16.60;99.90
44047;DHT22;29713;-33.888;151.150;2023-09-12T10:22:25;16.50;99.90
44047;DHT22;29713;-33.888;151.150;2023-09-12T10:24:57;16.50;99.90
44047;DHT22;29713;-33.888;151.150;2023-09-12T10:27:24;16.50;99.90
44047;DHT22;29713;-33.888;151.150;2023-09-12T10:29:52;16.50;99.90
44047;DHT22;29713;-33.888;151.150;2023-09-12T10:32:20;16.50;99.90
44047;DHT22;29713;-33.888;151.150;2023-09-12T10:34:49;16.40;99.90
44047;DHT22;29713;-33.888;151.150;2023-09-12T10:37:19;16.40;99.90
44047;DHT22;29713;-33.888;151.150;2023-09-12T10:39:49;16.30;99.90
44047;DHT22;29713;-33.888;151.150;2023-09-12T10:42:20;16.30;99.90
44047;DHT22;29713;-33.888;151.150;2023-09-12T10:44:50;16.30;99.90
44047;DHT22;29713;-33.888;151.150;2023-09-12T10:47:18;16.20;99.90
44047;DHT22;29713;-33.888;151.150;2023-09-12T10:49:46;16.20;99.90
44047;DHT22;29713;-33.888;151.150;2023-09-12T10:52:25;16.20;99.90
44047;DHT22;29713;-33.888;151.150;2023-09-12T10:54:53;16.10;99.90
44047;DHT22;29713;-33.888;151.150;2023-09-12T10:57:20;16.10;99.90
44047;DHT22;29713;-33.888;151.150;2023-09-12T11:02:32;16.00;99.90
44047;DHT22;29713;-33.888;151.150;2023-09-12T11:05:05;16.00;99.90
44047;DHT22;29713;-33.888;151.150;2023-09-12T11:12:44;15.80;99.90
44047;DHT22;29713;-33.888;151.150;2023-09-12T11:15:13;15.80;99.90
44047;DHT22;29713;-33.888;151.150;2023-09-12T11:17:43;15.80;99.90
44047;DHT22;29713;-33.888;151.150;2023-09-12T11:20:11;15.80;99.90
44047;DHT22;29713;-33.888;151.150;2023-09-12T11:22:46;15.70;99.90
44047;DHT22;29713;-33.888;151.150;2023-09-12T11:25:21;15.70;99.90
44047;DHT22;29713;-33.888;151.150;2023-09-12T11:30:24;15.70;99.90
44047;DHT22;29713;-33.888;151.150;2023-09-12T11:32:53;15.70;99.90
44047;DHT22;29713;-33.888;151.150;2023-09-12T11:35:28;15.60;99.90
44047;DHT22;29713;-33.888;151.150;2023-09-12T11:37:58;15.50;99.90
44047;DHT22;29713;-33.888;151.150;2023-09-12T11:40:43;15.50;99.90
44047;DHT22;29713;-33.888;151.150;2023-09-12T11:43:26;15.50;99.90
44047;DHT22;29713;-33.888;151.150;2023-09-12T11:45:55;15.40;99.90
44047;DHT22;29713;-33.888;151.150;2023-09-12T11:48:23;15.40;99.90
44047;DHT22;29713;-33.888;151.150;2023-09-12T11:50:56;15.40;99.90
44047;DHT22;29713;-33.888;151.150;2023-09-12T11:53:27;15.40;99.90
44047;DHT22;29713;-33.888;151.150;2023-09-12T11:56:01;15.40;99.90
44047;DHT22;29713;-33.888;151.150;2023-09-12T11:58:28;15.40;99.90
44047;DHT22;29713;-33.888;151.150;2023-09-12T12:00:58;15.30;99.90
44047;DHT22;29713;-33.888;151.150;2023-09-12T12:03:28;15.30;99.90
44047;DHT22;29713;-33.888;151.150;2023-09-12T12:05:56;15.20;99.90
44047;DHT22;29713;-33.888;151.150;2023-09-12T12:08:24;15.20;99.90
44047;DHT22;29713;-33.888;151.150;2023-09-12T12:10:52;15.20;99.90
44047;DHT22;29713;-33.888;151.150;2023-09-12T12:13:21;15.20;99.90
44047;DHT22;29713;-33.888;151.150;2023-09-12T12:15:49;15.20;99.90
44047;DHT22;29713;-33.888;151.150;2023-09-12T12:18:17;15.20;99.90
44047;DHT22;29713;-33.888;151.150;2023-09-12T12:20:44;15.20;99.90
44047;DHT22;29713;-33.888;151.150;2023-09-12T12:23:12;15.20;99.90
44047;DHT22;29713;-33.888;151.150;2023-09-12T12:25:39;15.10;99.90
44047;DHT22;29713;-33.888;151.150;2023-09-12T12:28:06;15.10;99.90
44047;DHT22;29713;-33.888;151.150;2023-09-12T12:30:35;15.10;99.90
44047;DHT22;29713;-33.888;151.150;2023-09-12T12:33:07;15.10;99.90
44047;DHT22;29713;-33.888;151.150;2023-09-12T12:35:35;15.00;99.90
44047;DHT22;29713;-33.888;151.150;2023-09-12T12:38:03;15.00;99.90
44047;DHT22;29713;-33.888;151.150;2023-09-12T12:40:31;14.90;99.90
44047;DHT22;29713;-33.888;151.150;2023-09-12T12:42:58;14.90;99.90
44047;DHT22;29713;-33.888;151.150;2023-09-12T12:45:25;14.90;99.90
44047;DHT22;29713;-33.888;151.150;2023-09-12T12:47:59;14.90;99.90
44047;DHT22;29713;-33.888;151.150;2023-09-12T12:50:27;14.90;99.90
44047;DHT22;29713;-33.888;151.150;2023-09-12T12:52:54;14.80;99.90
44047;DHT22;29713;-33.888;151.150;2023-09-12T12:55:22;14.70;99.90
44047;DHT22;29713;-33.888;151.150;2023-09-12T12:57:52;14.70;99.90
44047;DHT22;29713;-33.888;151.150;2023-09-12T13:00:19;14.60;99.90
44047;DHT22;29713;-33.888;151.150;2023-09-12T13:02:47;14.60;99.90
44047;DHT22;29713;-33.888;151.150;2023-09-12T13:05:29;14.50;99.90
44047;DHT22;29713;-33.888;151.150;2023-09-12T13:07:57;14.50;99.90
44047;DHT22;29713;-33.888;151.150;2023-09-12T13:10:24;14.50;99.90
44047;DHT22;29713;-33.888;151.150;2023-09-12T13:12:52;14.40;99.90
44047;DHT22;29713;-33.888;151.150;2023-09-12T13:15:19;14.40;99.90
44047;DHT22;29713;-33.888;151.150;2023-09-12T13:17:46;14.40;99.90
44047;DHT22;29713;-33.888;151.150;2023-09-12T13:20:14;14.30;99.90
44047;DHT22;29713;-33.888;151.150;2023-09-12T13:22:41;14.30;99.90
44047;DHT22;29713;-33.888;151.150;2023-09-12T13:25:10;14.30;99.90
44047;DHT22;29713;-33.888;151.150;2023-09-12T13:27:37;14.30;99.90
44047;DHT22;29713;-33.888;151.150;2023-09-12T13:30:05;14.30;99.90
44047;DHT22;29713;-33.888;151.150;2023-09-12T13:32:32;14.20;99.90
44047;DHT22;29713;-33.888;151.150;2023-09-12T13:35:00;14.20;99.90
44047;DHT22;29713;-33.888;151.150;2023-09-12T13:37:27;14.20;99.90
44047;DHT22;29713;-33.888;151.150;2023-09-12T13:39:56;14.20;99.90
44047;DHT22;29713;-33.888;151.150;2023-09-12T13:42:24;14.20;99.90
44047;DHT22;29713;-33.888;151.150;2023-09-12T13:44:56;14.20;99.90
44047;DHT22;29713;-33.888;151.150;2023-09-12T13:47:23;14.20;99.90
44047;DHT22;29713;-33.888;151.150;2023-09-12T13:49:52;14.20;99.90
44047;DHT22;29713;-33.888;151.150;2023-09-12T13:52:20;14.20;99.90
44047;DHT22;29713;-33.888;151.150;2023-09-12T13:54:48;14.10;99.90
44047;DHT22;29713;-33.888;151.150;2023-09-12T13:57:16;14.10;99.90
44047;DHT22;29713;-33.888;151.150;2023-09-12T13:59:44;14.10;99.90
44047;DHT22;29713;-33.888;151.150;2023-09-12T14:02:11;14.00;99.90
44047;DHT22;29713;-33.888;151.150;2023-09-12T14:04:38;14.00;99.90
44047;DHT22;29713;-33.888;151.150;2023-09-12T14:07:06;14.00;99.90
44047;DHT22;29713;-33.888;151.150;2023-09-12T14:09:34;14.00;99.90
44047;DHT22;29713;-33.888;151.150;2023-09-12T14:12:01;14.00;99.90
44047;DHT22;29713;-33.888;151.150;2023-09-12T14:14:29;13.90;99.90
44047;DHT22;29713;-33.888;151.150;2023-09-12T14:16:56;13.90;99.90
44047;DHT22;29713;-33.888;151.150;2023-09-12T14:19:24;13.90;99.90
44047;DHT22;29713;-33.888;151.150;2023-09-12T14:21:52;13.90;99.90
44047;DHT22;29713;-33.888;151.150;2023-09-12T14:24:19;13.90;99.90
44047;DHT22;29713;-33.888;151.150;2023-09-12T14:26:46;13.80;99.90
44047;DHT22;29713;-33.888;151.150;2023-09-12T14:29:13;13.80;99.90
44047;DHT22;29713;-33.888;151.150;2023-09-12T14:31:41;13.80;99.90
44047;DHT22;29713;-33.888;151.150;2023-09-12T14:34:16;13.80;99.90
44047;DHT22;29713;-33.888;151.150;2023-09-12T14:36:43;13.80;99.90
44047;DHT22;29713;-33.888;151.150;2023-09-12T14:39:12;13.80;99.90
44047;DHT22;29713;-33.888;151.150;2023-09-12T14:41:41;13.80;99.90
44047;DHT22;29713;-33.888;151.150;2023-09-12T14:44:10;13.70;99.90
44047;DHT22;29713;-33.888;151.150;2023-09-12T14:46:37;13.70;99.90
44047;DHT22;29713;-33.888;151.150;2023-09-12T14:49:05;13.70;99.90
44047;DHT22;29713;-33.888;151.150;2023-09-12T14:51:32;13.70;99.90
44047;DHT22;29713;-33.888;151.150;2023-09-12T14:53:59;13.70;99.90
44047;DHT22;29713;-33.888;151.150;2023-09-12T14:56:27;13.60;99.90
44047;DHT22;29713;-33.888;151.150;2023-09-12T14:58:54;13.70;99.90
44047;DHT22;29713;-33.888;151.150;2023-09-12T15:01:21;13.70;99.90
44047;DHT22;29713;-33.888;151.150;2023-09-12T15:03:50;13.70;99.90
44047;DHT22;29713;-33.888;151.150;2023-09-12T15:06:18;13.70;99.90
44047;DHT22;29713;-33.888;151.150;2023-09-12T15:08:45;13.50;99.90
44047;DHT22;29713;-33.888;151.150;2023-09-12T15:11:12;13.50;99.90
44047;DHT22;29713;-33.888;151.150;2023-09-12T15:13:40;13.50;99.90